createdAt,value
2022-10-17T00:02:16.039Z,14.15
2022-10-17T00:04:43.747Z,14.15
2022-10-17T00:07:11.439Z,14.13
2022-10-17T00:09:39.165Z,14.06
2022-10-17T00:12:07.125Z,14.01
2022-10-17T00:14:34.857Z,13.97
2022-10-17T00:17:04.426Z,13.89
2022-10-17T00:19:32.140Z,13.83
2022-10-17T00:21:59.817Z,13.80
2022-10-17T00:24:27.490Z,13.75
2022-10-17T00:26:55.157Z,13.72
2022-10-17T00:29:22.860Z,13.71
2022-10-17T00:31:50.637Z,13.68
2022-10-17T00:34:19.704Z,13.65
2022-10-17T00:36:47.352Z,13.66
2022-10-17T00:39:15.105Z,13.65
2022-10-17T00:41:42.798Z,13.64
2022-10-17T00:44:42.858Z,13.61
2022-10-17T00:47:13.909Z,13.59
2022-10-17T00:49:43.306Z,13.56
2022-10-17T00:52:14.754Z,13.54
2022-10-17T00:54:46.940Z,13.52
2022-10-17T00:57:15.958Z,13.52
2022-10-17T00:59:48.468Z,13.47
2022-10-17T01:02:18.756Z,13.43
2022-10-17T01:04:51.090Z,13.42
2022-10-17T01:07:19.012Z,13.40
2022-10-17T01:09:48.071Z,13.40
2022-10-17T01:12:21.670Z,13.38
2022-10-17T01:15:03.834Z,13.35
2022-10-17T01:17:42.009Z,13.32
2022-10-17T01:20:39.271Z,13.28
2022-10-17T01:23:31.683Z,13.23
2022-10-17T01:26:12.762Z,13.21
2022-10-17T01:29:00.817Z,13.18
2022-10-17T01:31:37.951Z,13.13
2022-10-17T01:34:13.355Z,13.14
2022-10-17T01:36:49.239Z,13.14
2022-10-17T01:39:28.049Z,13.14
2022-10-17T01:42:03.078Z,13.14
2022-10-17T01:44:38.067Z,13.16
2022-10-17T01:47:11.097Z,13.15
2022-10-17T01:49:41.934Z,13.15
2022-10-17T01:52:13.109Z,13.17
2022-10-17T01:54:46.534Z,13.14
2022-10-17T01:57:31.269Z,13.16
2022-10-17T01:59:59.324Z,13.14
2022-10-17T02:02:29.388Z,13.17
2022-10-17T02:04:58.339Z,13.15
2022-10-17T02:07:26.423Z,13.12
2022-10-17T02:09:54.287Z,13.08
2022-10-17T02:12:48.320Z,13.08
2022-10-17T02:15:34.700Z,13.08
2022-10-17T02:18:12.676Z,13.15
2022-10-17T02:20:50.531Z,13.21
2022-10-17T02:23:25.074Z,13.30
2022-10-17T02:26:03.069Z,13.38
2022-10-17T02:28:35.783Z,13.43
2022-10-17T02:31:05.310Z,13.46
2022-10-17T02:33:39.755Z,13.49
2022-10-17T02:36:12.670Z,13.47
2022-10-17T02:38:43.232Z,13.47
2022-10-17T02:41:14.638Z,13.47
2022-10-17T02:43:45.232Z,13.48
2022-10-17T02:46:20.714Z,13.49
2022-10-17T02:48:53.154Z,13.48
2022-10-17T02:51:29.231Z,13.49
2022-10-17T02:54:06.098Z,13.50
2022-10-17T02:56:42.174Z,13.51
2022-10-17T02:59:14.179Z,13.52
2022-10-17T03:01:42.782Z,13.53
2022-10-17T03:04:13.732Z,13.51
2022-10-17T03:06:42.297Z,13.52
2022-10-17T03:09:09.996Z,13.52
2022-10-17T03:11:37.702Z,13.53
2022-10-17T03:14:05.766Z,13.53
2022-10-17T03:16:33.451Z,13.56
2022-10-17T03:19:01.240Z,13.54
2022-10-17T03:21:30.369Z,13.59
2022-10-17T03:23:58.205Z,13.59
2022-10-17T03:26:25.964Z,13.58
2022-10-17T03:28:54.609Z,13.60
2022-10-17T03:31:22.910Z,13.60
2022-10-17T03:33:50.558Z,13.60
2022-10-17T03:36:20.174Z,13.59
2022-10-17T03:38:49.477Z,13.60
2022-10-17T03:41:17.159Z,13.59
2022-10-17T03:43:44.849Z,13.61
2022-10-17T03:46:12.620Z,13.60
2022-10-17T03:48:40.411Z,13.59
2022-10-17T03:51:10.411Z,13.57
2022-10-17T03:53:38.267Z,13.57
2022-10-17T03:56:16.692Z,13.53
2022-10-17T03:58:44.752Z,13.51
2022-10-17T04:01:14.560Z,13.53
2022-10-17T04:03:42.684Z,13.52
2022-10-17T04:06:13.330Z,13.54
2022-10-17T04:08:42.696Z,13.55
2022-10-17T04:11:14.555Z,13.59
2022-10-17T04:13:43.620Z,13.56
2022-10-17T04:16:19.235Z,13.59
2022-10-17T04:18:46.902Z,13.59
2022-10-17T04:21:14.848Z,13.57
2022-10-17T04:23:42.579Z,13.56
2022-10-17T04:26:10.262Z,13.57
2022-10-17T04:31:14.349Z,13.53
2022-10-17T04:33:42.530Z,13.52
2022-10-17T04:36:14.136Z,13.51
2022-10-17T04:38:42.157Z,13.50
2022-10-17T04:41:14.003Z,13.47
2022-10-17T04:44:56.865Z,13.46
2022-10-17T04:47:26.166Z,13.43
2022-10-17T04:49:53.967Z,13.41
2022-10-17T04:52:21.770Z,13.39
2022-10-17T04:54:49.739Z,13.37
2022-10-17T04:57:17.849Z,13.37
2022-10-17T04:59:45.668Z,13.34
2022-10-17T05:02:13.646Z,13.34
2022-10-17T05:04:42.846Z,13.33
2022-10-17T05:07:10.674Z,13.33
2022-10-17T05:09:38.559Z,13.32
2022-10-17T05:12:09.500Z,13.33
2022-10-17T05:14:38.335Z,13.34
2022-10-17T05:17:06.281Z,13.35
2022-10-17T05:19:34.227Z,13.35
2022-10-17T05:22:03.633Z,13.34
2022-10-17T05:24:31.524Z,13.34
2022-10-17T05:26:59.467Z,13.32
2022-10-17T05:29:27.423Z,13.33
2022-10-17T05:31:55.394Z,13.32
2022-10-17T05:34:23.390Z,13.32
2022-10-17T05:36:51.302Z,13.30
2022-10-17T05:39:20.649Z,13.30
2022-10-17T05:41:48.492Z,13.30
2022-10-17T05:44:16.792Z,13.30
2022-10-17T05:46:45.171Z,13.30
2022-10-17T05:49:19.556Z,13.30
2022-10-17T05:51:59.742Z,13.31
2022-10-17T05:54:29.061Z,13.29
2022-10-17T05:56:57.446Z,13.29
2022-10-17T05:59:26.852Z,13.27
2022-10-17T06:01:55.680Z,13.28
2022-10-17T06:04:23.620Z,13.28
2022-10-17T06:06:51.511Z,13.29
2022-10-17T06:09:19.374Z,13.29
2022-10-17T06:11:48.734Z,13.31
2022-10-17T06:14:16.710Z,13.32
2022-10-17T06:16:44.710Z,13.31
2022-10-17T06:19:12.680Z,13.34
2022-10-17T06:21:40.638Z,13.34
2022-10-17T06:24:08.530Z,13.39
2022-10-17T06:26:36.481Z,13.39
2022-10-17T06:29:05.885Z,13.42
2022-10-17T06:31:33.899Z,13.42
2022-10-17T06:34:01.904Z,13.44
2022-10-17T06:36:29.847Z,13.44
2022-10-17T06:38:57.824Z,13.47
2022-10-17T06:41:26.368Z,13.52
2022-10-17T06:43:54.456Z,13.53
2022-10-17T06:46:26.785Z,13.54
2022-10-17T06:48:54.766Z,13.58
2022-10-17T06:51:22.806Z,13.62
2022-10-17T06:53:50.924Z,13.64
2022-10-17T06:56:19.510Z,13.69
2022-10-17T06:58:49.527Z,13.74
2022-10-17T07:01:17.546Z,13.77
2022-10-17T07:03:49.553Z,13.87
2022-10-17T07:06:18.248Z,13.94
2022-10-17T07:08:47.052Z,14.03
2022-10-17T07:11:17.729Z,14.08
2022-10-17T07:13:46.065Z,14.23
2022-10-17T07:16:14.923Z,14.40
2022-10-17T07:18:43.461Z,14.66
2022-10-17T07:21:12.927Z,15.15
2022-10-17T07:23:41.526Z,15.54
2022-10-17T07:26:18.899Z,16.01
2022-10-17T07:28:49.502Z,16.42
2022-10-17T07:31:19.077Z,16.65
2022-10-17T07:33:47.558Z,16.92
2022-10-17T07:36:17.681Z,17.06
2022-10-17T07:38:46.057Z,17.07
2022-10-17T07:41:19.209Z,16.94
2022-10-17T07:43:49.699Z,16.87
2022-10-17T07:46:17.744Z,16.99
2022-10-17T07:48:46.162Z,17.05
2022-10-17T07:51:14.271Z,17.12
2022-10-17T07:53:47.938Z,17.15
2022-10-17T07:56:17.024Z,17.07
2022-10-17T07:58:44.872Z,17.10
2022-10-17T08:01:16.226Z,17.05
2022-10-17T08:03:45.761Z,17.07
2022-10-17T08:06:14.305Z,17.10
2022-10-17T08:08:44.270Z,17.18
2022-10-17T08:11:14.282Z,17.27
2022-10-17T08:13:42.856Z,17.26
2022-10-17T08:16:13.589Z,17.31
2022-10-17T08:18:44.414Z,17.43
2022-10-17T08:21:14.173Z,17.45
2022-10-17T08:23:43.571Z,17.52
2022-10-17T08:26:13.619Z,17.66
2022-10-17T08:28:42.475Z,17.74
2022-10-17T08:31:12.058Z,17.82
2022-10-17T08:33:40.095Z,17.89
2022-10-17T08:36:09.148Z,17.98
2022-10-17T08:38:43.071Z,18.02
2022-10-17T08:41:21.750Z,18.01
2022-10-17T08:44:12.337Z,18.04
2022-10-17T08:46:43.918Z,18.05
2022-10-17T08:49:17.646Z,18.06
2022-10-17T08:51:51.512Z,18.07
2022-10-17T08:54:23.611Z,18.20
2022-10-17T08:56:56.706Z,18.25
2022-10-17T08:59:28.849Z,18.33
2022-10-17T09:02:04.335Z,18.27
2022-10-17T09:04:54.125Z,18.44
2022-10-17T09:07:28.746Z,18.63
2022-10-17T09:10:08.135Z,18.71
2022-10-17T09:12:46.342Z,18.75
2022-10-17T09:15:38.695Z,18.77
2022-10-17T09:18:13.352Z,18.76
2022-10-17T09:20:46.615Z,18.84
2022-10-17T09:23:19.220Z,18.88
2022-10-17T09:25:48.500Z,18.87
2022-10-17T09:28:22.840Z,19.07
2022-10-17T09:30:57.211Z,19.27
2022-10-17T09:33:42.296Z,19.44
2022-10-17T09:36:20.111Z,19.60
2022-10-17T09:38:50.685Z,19.75
2022-10-17T09:44:23.613Z,20.29
2022-10-17T09:47:19.446Z,20.53
2022-10-17T09:49:49.141Z,20.76
2022-10-17T09:52:19.619Z,20.84
2022-10-17T09:54:49.810Z,21.02
2022-10-17T09:57:19.363Z,21.11
2022-10-17T09:59:57.365Z,21.27
2022-10-17T10:02:27.046Z,21.42
2022-10-17T10:05:06.872Z,21.44
2022-10-17T10:07:38.058Z,21.55
2022-10-17T10:10:08.940Z,21.65
2022-10-17T10:12:40.391Z,21.84
2022-10-17T10:15:34.538Z,21.94
2022-10-17T10:18:02.901Z,22.18
2022-10-17T10:20:35.756Z,22.38
2022-10-17T10:23:12.781Z,22.53
2022-10-17T10:25:53.706Z,22.55
2022-10-17T10:28:23.844Z,22.68
2022-10-17T10:30:55.529Z,22.72
2022-10-17T10:33:26.495Z,22.86
2022-10-17T10:36:01.193Z,22.99
2022-10-17T10:38:29.494Z,23.15
2022-10-17T10:41:02.669Z,23.24
2022-10-17T10:43:36.507Z,23.41
2022-10-17T10:46:17.261Z,23.43
2022-10-17T10:48:52.306Z,23.54
2022-10-17T10:51:24.982Z,23.66
2022-10-17T10:53:58.059Z,23.75
2022-10-17T10:56:31.027Z,23.99
2022-10-17T10:59:04.059Z,23.94
2022-10-17T11:01:40.454Z,23.89
2022-10-17T11:04:29.321Z,24.09
2022-10-17T11:07:07.265Z,24.21
2022-10-17T11:09:47.374Z,24.40
2022-10-17T11:12:22.107Z,24.52
2022-10-17T11:14:57.314Z,24.58
2022-10-17T11:17:33.859Z,24.80
2022-10-17T11:20:15.126Z,24.93
2022-10-17T11:22:47.614Z,25.01
2022-10-17T11:25:25.803Z,25.25
2022-10-17T11:27:53.638Z,25.33
2022-10-17T11:30:24.503Z,25.52
2022-10-17T11:32:58.181Z,25.63
2022-10-17T11:35:29.153Z,25.74
2022-10-17T11:38:06.668Z,25.80
2022-10-17T11:40:37.227Z,25.82
2022-10-17T11:43:14.631Z,25.95
2022-10-17T11:45:46.800Z,26.07
2022-10-17T11:48:23.997Z,26.19
2022-10-17T11:53:53.965Z,26.45
2022-10-17T11:56:28.063Z,26.41
2022-10-17T11:59:03.812Z,26.33
2022-10-17T12:01:40.009Z,26.46
2022-10-17T12:04:41.985Z,26.62
2022-10-17T12:07:16.909Z,26.82
2022-10-17T12:09:47.416Z,26.85
2022-10-17T12:12:27.032Z,27.09
2022-10-17T12:14:55.480Z,27.17
2022-10-17T12:17:34.792Z,27.26
2022-10-17T12:20:28.491Z,27.43
2022-10-17T12:22:58.854Z,27.38
2022-10-17T12:25:30.146Z,27.53
2022-10-17T12:28:15.908Z,27.73
2022-10-17T12:30:56.877Z,27.84
2022-10-17T12:33:31.408Z,27.78
2022-10-17T12:36:47.270Z,27.98
2022-10-17T12:39:52.444Z,28.11
2022-10-17T12:42:52.637Z,28.16
2022-10-17T12:45:54.406Z,28.16
2022-10-17T12:49:04.806Z,28.04
2022-10-17T12:52:11.157Z,28.09
2022-10-17T12:54:48.101Z,28.22
2022-10-17T12:57:34.502Z,28.22
2022-10-17T13:00:06.206Z,28.13
2022-10-17T13:02:34.941Z,28.16
2022-10-17T13:05:09.409Z,28.04
2022-10-17T13:07:38.207Z,27.98
2022-10-17T13:10:11.618Z,27.92
2022-10-17T13:12:42.934Z,27.98
2022-10-17T13:15:19.011Z,27.87
2022-10-17T13:17:47.497Z,27.72
2022-10-17T13:20:25.565Z,27.57
2022-10-17T13:22:58.230Z,27.55
2022-10-17T13:25:28.610Z,27.59
2022-10-17T13:28:14.350Z,27.41
2022-10-17T13:30:49.587Z,27.57
2022-10-17T13:33:30.159Z,27.47
2022-10-17T13:36:00.387Z,27.57
2022-10-17T13:38:32.302Z,27.58
2022-10-17T13:41:30.036Z,27.49
2022-10-17T13:43:52.278Z,27.50
2022-10-17T13:46:37.384Z,27.62
2022-10-17T13:49:14.019Z,27.66
2022-10-17T13:51:45.883Z,27.39
2022-10-17T13:54:27.938Z,27.36
2022-10-17T13:56:58.898Z,27.40
2022-10-17T13:59:31.920Z,27.48
2022-10-17T14:02:01.677Z,27.50
2022-10-17T14:04:39.983Z,27.41
2022-10-17T14:07:22.852Z,27.29
2022-10-17T14:09:51.095Z,27.17
2022-10-17T14:12:22.333Z,27.14
2022-10-17T14:15:10.789Z,27.02
2022-10-17T14:17:40.645Z,26.90
2022-10-17T14:20:57.440Z,26.69
2022-10-17T14:23:21.580Z,26.48
2022-10-17T14:25:47.621Z,26.31
2022-10-17T14:28:18.518Z,26.11
2022-10-17T14:30:57.122Z,25.90
2022-10-17T14:33:28.896Z,25.66
2022-10-17T14:35:58.900Z,25.47
2022-10-17T14:38:27.485Z,25.27
2022-10-17T14:41:23.287Z,25.11
2022-10-17T14:43:54.609Z,24.97
2022-10-17T14:46:22.676Z,24.83
2022-10-17T14:48:55.797Z,24.68
2022-10-17T14:51:23.776Z,24.55
2022-10-17T14:54:06.168Z,24.40
2022-10-17T14:56:41.429Z,24.28
2022-10-17T14:59:15.638Z,24.26
2022-10-17T15:01:49.550Z,24.27
2022-10-17T15:04:17.726Z,24.25
2022-10-17T15:06:46.005Z,24.22
2022-10-17T15:09:14.007Z,24.18
2022-10-17T15:11:41.870Z,24.14
2022-10-17T15:14:11.180Z,24.05
2022-10-17T15:16:39.512Z,23.98
2022-10-17T15:19:07.494Z,23.91
2022-10-17T15:21:43.257Z,23.84
2022-10-17T15:24:15.101Z,23.80
2022-10-17T15:26:43.117Z,23.72
2022-10-17T15:29:16.321Z,23.71
2022-10-17T15:31:44.287Z,23.70
2022-10-17T15:34:12.313Z,23.66
2022-10-17T15:36:42.258Z,23.56
2022-10-17T15:39:11.437Z,23.49
2022-10-17T15:41:39.384Z,23.40
2022-10-17T15:44:07.432Z,23.31
2022-10-17T15:46:37.004Z,23.18
2022-10-17T15:49:07.454Z,23.06
2022-10-17T15:51:35.363Z,22.98
2022-10-17T15:54:03.344Z,22.88
2022-10-17T15:56:35.865Z,22.78
2022-10-17T15:59:05.531Z,22.67
2022-10-17T16:01:35.965Z,22.57
2022-10-17T16:04:04.211Z,22.46
2022-10-17T16:06:31.994Z,22.34
2022-10-17T16:08:59.720Z,22.22
2022-10-17T16:11:31.740Z,22.08
2022-10-17T16:14:01.268Z,22.02
2022-10-17T16:16:29.202Z,21.93
2022-10-17T16:18:58.470Z,21.84
2022-10-17T16:21:28.745Z,21.75
2022-10-17T16:23:56.860Z,21.65
2022-10-17T16:26:24.727Z,21.56
2022-10-17T16:28:52.556Z,21.50
2022-10-17T16:31:23.172Z,21.40
2022-10-17T16:33:53.440Z,21.30
2022-10-17T16:36:22.736Z,21.20
2022-10-17T16:38:51.348Z,21.08
2022-10-17T16:41:23.563Z,20.97
2022-10-17T16:43:53.157Z,20.93
2022-10-17T16:46:22.024Z,20.81
2022-10-17T16:48:50.050Z,20.71
2022-10-17T16:51:19.999Z,20.60
2022-10-17T16:53:50.687Z,20.54
2022-10-17T16:56:20.994Z,20.45
2022-10-17T16:58:49.551Z,20.40
2022-10-17T17:01:19.289Z,20.36
2022-10-17T17:03:48.970Z,20.33
2022-10-17T17:06:20.623Z,20.27
2022-10-17T17:08:49.734Z,20.24
2022-10-17T17:11:19.207Z,20.22
2022-10-17T17:13:46.940Z,20.19
2022-10-17T17:16:16.891Z,20.13
2022-10-17T17:18:46.038Z,20.07
2022-10-17T17:21:14.538Z,20.01
2022-10-17T17:23:44.095Z,19.97
2022-10-17T17:26:15.265Z,19.96
2022-10-17T17:28:43.800Z,19.94
2022-10-17T17:31:13.723Z,19.93
2022-10-17T17:33:42.907Z,19.91
2022-10-17T17:36:14.886Z,19.92
2022-10-17T17:38:42.639Z,19.88
2022-10-17T17:41:14.431Z,19.84
2022-10-17T17:43:42.474Z,19.80
2022-10-17T17:46:10.982Z,19.76
2022-10-17T17:48:39.355Z,19.72
2022-10-17T17:51:08.745Z,19.66
2022-10-17T17:53:37.083Z,19.59
2022-10-17T17:56:06.082Z,19.52
2022-10-17T17:58:36.083Z,19.45
2022-10-17T18:01:14.331Z,19.39
2022-10-17T18:03:42.923Z,19.32
2022-10-17T18:06:10.902Z,19.27
2022-10-17T18:08:38.773Z,19.22
2022-10-17T18:11:07.295Z,19.17
2022-10-17T18:13:36.414Z,19.12
2022-10-17T18:16:12.666Z,19.09
2022-10-17T18:18:41.602Z,19.05
2022-10-17T18:21:10.080Z,19.04
2022-10-17T18:23:38.984Z,19.00
2022-10-17T18:26:07.517Z,19.00
2022-10-17T18:28:38.415Z,18.97
2022-10-17T18:31:07.648Z,18.95
2022-10-17T18:33:36.065Z,18.94
2022-10-17T18:36:07.081Z,18.96
2022-10-17T18:38:35.117Z,18.96
2022-10-17T18:41:04.520Z,18.96
2022-10-17T18:43:34.192Z,18.93
2022-10-17T18:46:12.487Z,18.89
2022-10-17T18:48:45.426Z,18.85
2022-10-17T18:51:14.519Z,18.79
2022-10-17T18:53:42.875Z,18.74
2022-10-17T18:56:11.298Z,18.71
2022-10-17T18:58:40.181Z,18.67
2022-10-17T19:01:11.914Z,18.61
2022-10-17T19:03:39.773Z,18.56
2022-10-17T19:06:09.482Z,18.52
2022-10-17T19:08:38.073Z,18.47
2022-10-17T19:11:07.331Z,18.44
2022-10-17T19:13:35.599Z,18.40
2022-10-17T19:16:06.392Z,18.35
2022-10-17T19:18:35.987Z,18.29
2022-10-17T19:21:04.729Z,18.25
2022-10-17T19:23:35.442Z,18.19
2022-10-17T19:26:04.239Z,18.17
2022-10-17T19:28:32.306Z,18.10
2022-10-17T19:31:00.175Z,18.04
2022-10-17T19:35:58.836Z,17.94
2022-10-17T19:38:26.897Z,17.90
2022-10-17T19:40:54.873Z,17.89
2022-10-17T19:43:23.120Z,17.83
2022-10-17T19:45:57.711Z,17.81
2022-10-17T19:48:26.246Z,17.78
2022-10-17T19:50:54.496Z,17.77
2022-10-17T19:53:27.458Z,17.76
2022-10-17T19:55:55.159Z,17.75
2022-10-17T19:58:23.004Z,17.72
2022-10-17T20:00:52.316Z,17.70
2022-10-17T20:03:20.059Z,17.70
2022-10-17T20:05:48.081Z,17.69
2022-10-17T20:08:16.911Z,17.60
2022-10-17T20:10:46.126Z,17.56
2022-10-17T20:13:14.450Z,17.58
2022-10-17T20:15:42.366Z,17.60
2022-10-17T20:18:10.689Z,17.59
2022-10-17T20:20:38.761Z,17.59
2022-10-17T20:23:06.544Z,17.58
2022-10-17T20:25:35.204Z,17.56
2022-10-17T20:28:04.358Z,17.54
2022-10-17T20:30:32.113Z,17.52
2022-10-17T20:32:59.853Z,17.51
2022-10-17T20:35:27.666Z,17.50
2022-10-17T20:37:55.475Z,17.45
2022-10-17T20:40:34.743Z,17.43
2022-10-17T20:43:05.013Z,17.40
2022-10-17T20:45:50.352Z,17.38
2022-10-17T20:48:20.076Z,17.36
2022-10-17T20:50:47.805Z,17.32
2022-10-17T20:53:36.965Z,17.28
2022-10-17T20:56:05.934Z,17.23
2022-10-17T20:58:35.197Z,17.20
2022-10-17T21:01:07.371Z,17.15
2022-10-17T21:03:39.757Z,17.12
2022-10-17T21:06:10.831Z,17.10
2022-10-17T21:08:39.132Z,17.09
2022-10-17T21:11:11.481Z,17.06
2022-10-17T21:13:41.110Z,17.03
2022-10-17T21:16:10.906Z,16.99
2022-10-17T21:18:39.229Z,16.96
2022-10-17T21:21:12.920Z,16.95
2022-10-17T21:23:42.188Z,16.92
2022-10-17T21:26:12.293Z,16.87
2022-10-17T21:28:42.296Z,16.84
2022-10-17T21:31:13.494Z,16.82
2022-10-17T21:33:42.186Z,16.80
2022-10-17T21:36:10.971Z,16.78
2022-10-17T21:38:39.582Z,16.76
2022-10-17T21:41:09.358Z,16.76
2022-10-17T21:43:38.301Z,16.74
2022-10-17T21:46:08.876Z,16.73
2022-10-17T21:48:36.905Z,16.69
2022-10-17T21:51:08.114Z,16.69
2022-10-17T21:53:36.559Z,16.65
2022-10-17T21:56:06.060Z,16.63
2022-10-17T21:58:34.960Z,16.62
2022-10-17T22:01:09.223Z,16.68
2022-10-17T22:03:42.624Z,16.70
2022-10-17T22:09:04.112Z,16.74
2022-10-17T22:11:34.615Z,16.76
2022-10-17T22:14:03.702Z,16.77
2022-10-17T22:16:33.096Z,16.80
2022-10-17T22:19:05.938Z,16.74
2022-10-17T22:21:35.612Z,16.74
2022-10-17T22:24:08.573Z,16.72
2022-10-17T22:26:38.325Z,16.71
2022-10-17T22:29:07.191Z,16.68
2022-10-17T22:31:37.066Z,16.63
2022-10-17T22:34:05.710Z,16.61
2022-10-17T22:36:33.802Z,16.58
2022-10-17T22:39:01.493Z,16.50
2022-10-17T22:41:29.276Z,16.48
2022-10-17T22:43:57.026Z,16.45
2022-10-17T22:46:24.813Z,16.40
2022-10-17T22:48:53.959Z,16.38
2022-10-17T22:51:21.691Z,16.35
2022-10-17T22:53:49.422Z,16.33
2022-10-17T22:56:19.223Z,16.29
2022-10-17T22:58:47.490Z,16.26
2022-10-17T23:01:17.596Z,16.22
2022-10-17T23:03:45.819Z,16.21
2022-10-17T23:06:15.140Z,16.19
2022-10-17T23:08:43.585Z,16.21
2022-10-17T23:11:13.510Z,16.22
2022-10-17T23:13:41.359Z,16.24
2022-10-17T23:16:09.843Z,16.25
2022-10-17T23:18:38.725Z,16.26
2022-10-17T23:21:07.514Z,16.25
2022-10-17T23:23:37.093Z,16.26
2022-10-17T23:26:06.779Z,16.25
2022-10-17T23:28:35.583Z,16.26
2022-10-17T23:31:12.152Z,16.30
2022-10-17T23:33:41.278Z,16.32
2022-10-17T23:36:10.508Z,16.37
2022-10-17T23:38:40.086Z,16.35
2022-10-17T23:41:07.892Z,16.35
2022-10-17T23:43:35.782Z,16.34
2022-10-17T23:46:04.418Z,16.32
2022-10-17T23:48:32.333Z,16.33
2022-10-17T23:51:00.045Z,16.37
2022-10-17T23:53:27.849Z,16.37
2022-10-17T23:55:56.916Z,16.35
2022-10-17T23:58:24.634Z,16.30
